createdAt,value
2018-07-03T00:00:10.980Z,1012.41
2018-07-03T00:01:10.994Z,1012.43
2018-07-03T00:02:11.013Z,1012.41
2018-07-03T00:03:11.037Z,1012.42
2018-07-03T00:04:11.061Z,1012.44
2018-07-03T00:05:11.079Z,1012.44
2018-07-03T00:06:11.105Z,1012.42
2018-07-03T00:07:11.127Z,1012.40
2018-07-03T00:08:11.146Z,1012.46
2018-07-03T00:09:11.168Z,1012.47
2018-07-03T00:10:11.193Z,1012.46
2018-07-03T00:11:11.212Z,1012.49
2018-07-03T00:12:11.234Z,1012.43
2018-07-03T00:13:11.456Z,1012.46
2018-07-03T00:14:11.278Z,1012.47
2018-07-03T00:15:11.303Z,1012.46
2018-07-03T00:16:11.325Z,1012.44
2018-07-03T00:17:11.347Z,1012.45
2018-07-03T00:18:11.367Z,1012.45
2018-07-03T00:19:11.390Z,1012.43
2018-07-03T00:20:11.410Z,1012.47
2018-07-03T00:21:11.432Z,1012.42
2018-07-03T00:22:11.458Z,1012.43
2018-07-03T00:23:11.477Z,1012.42
2018-07-03T00:24:11.501Z,1012.44
2018-07-03T00:25:11.523Z,1012.39
2018-07-03T00:26:11.545Z,1012.37
2018-07-03T00:27:11.567Z,1012.39
2018-07-03T00:28:11.586Z,1012.36
2018-07-03T00:29:11.607Z,1012.42
2018-07-03T00:30:11.632Z,1012.35
2018-07-03T00:31:11.651Z,1012.36
2018-07-03T00:32:11.681Z,1012.43
2018-07-03T00:33:11.695Z,1012.43
2018-07-03T00:34:11.719Z,1012.41
2018-07-03T00:35:11.739Z,1012.43
2018-07-03T00:36:11.765Z,1012.41
2018-07-03T00:37:11.785Z,1012.42
2018-07-03T00:38:11.807Z,1012.36
2018-07-03T00:39:11.830Z,1012.37
2018-07-03T00:40:11.850Z,1012.37
2018-07-03T00:41:11.872Z,1012.37
2018-07-03T00:42:11.893Z,1012.38
2018-07-03T00:43:11.914Z,1012.38
2018-07-03T00:44:11.943Z,1012.38
2018-07-03T00:45:11.957Z,1012.37
2018-07-03T00:46:11.983Z,1012.39
2018-07-03T00:47:12.005Z,1012.39
2018-07-03T00:48:12.027Z,1012.44
2018-07-03T00:49:12.048Z,1012.44
2018-07-03T00:50:12.067Z,1012.46
2018-07-03T00:51:12.092Z,1012.45
2018-07-03T00:52:12.112Z,1012.46
2018-07-03T00:53:12.137Z,1012.51
2018-07-03T00:54:12.155Z,1012.46
2018-07-03T00:55:12.179Z,1012.43
2018-07-03T00:56:12.199Z,1012.45
2018-07-03T00:57:12.222Z,1012.44
2018-07-03T00:58:12.245Z,1012.49
2018-07-03T00:59:12.267Z,1012.44
2018-07-03T01:00:12.288Z,1012.47
2018-07-03T01:01:12.306Z,1012.47
2018-07-03T01:02:12.334Z,1012.44
2018-07-03T01:03:12.354Z,1012.47
2018-07-03T01:04:12.373Z,1012.48
2018-07-03T01:05:12.396Z,1012.46
2018-07-03T01:06:12.415Z,1012.45
2018-07-03T01:07:12.441Z,1012.42
2018-07-03T01:08:12.460Z,1012.38
2018-07-03T01:09:12.482Z,1012.41
2018-07-03T01:10:12.505Z,1012.46
2018-07-03T01:11:12.524Z,1012.42
2018-07-03T01:12:12.546Z,1012.40
2018-07-03T01:13:12.567Z,1012.40
2018-07-03T01:14:12.590Z,1012.43
2018-07-03T01:15:12.611Z,1012.41
2018-07-03T01:16:12.635Z,1012.44
2018-07-03T01:17:12.655Z,1012.41
2018-07-03T01:18:12.679Z,1012.39
2018-07-03T01:19:12.700Z,1012.35
2018-07-03T01:20:12.723Z,1012.38
2018-07-03T01:21:12.744Z,1012.37
2018-07-03T01:22:12.764Z,1012.33
2018-07-03T01:23:12.787Z,1012.33
2018-07-03T01:24:12.812Z,1012.35
2018-07-03T01:25:12.828Z,1012.35
2018-07-03T01:26:12.852Z,1012.33
2018-07-03T01:27:12.876Z,1012.37
2018-07-03T01:28:12.893Z,1012.34
2018-07-03T01:29:12.914Z,1012.29
2018-07-03T01:30:12.937Z,1012.30
2018-07-03T01:31:12.957Z,1012.33
2018-07-03T01:32:12.982Z,1012.32
2018-07-03T01:33:13.003Z,1012.28
2018-07-03T01:34:13.042Z,1012.29
2018-07-03T01:35:13.045Z,1012.31
2018-07-03T01:36:13.126Z,1012.24
2018-07-03T01:37:13.087Z,1012.30
2018-07-03T01:38:13.108Z,1012.26
2018-07-03T01:39:13.134Z,1012.28
2018-07-03T01:40:13.152Z,1012.29
2018-07-03T01:41:13.173Z,1012.23
2018-07-03T01:42:13.198Z,1012.24
2018-07-03T01:43:13.220Z,1012.29
2018-07-03T01:44:13.239Z,1012.29
2018-07-03T01:45:13.262Z,1012.28
2018-07-03T01:46:13.282Z,1012.26
2018-07-03T01:47:13.305Z,1012.25
2018-07-03T01:48:13.324Z,1012.26
2018-07-03T01:49:13.346Z,1012.22
2018-07-03T01:50:13.369Z,1012.22
2018-07-03T01:51:13.393Z,1012.21
2018-07-03T01:52:13.417Z,1012.20
2018-07-03T01:53:13.434Z,1012.22
2018-07-03T01:54:13.455Z,1012.19
2018-07-03T01:55:13.477Z,1012.20
2018-07-03T01:56:13.499Z,1012.19
2018-07-03T01:57:13.518Z,1012.20
2018-07-03T01:58:13.539Z,1012.19
2018-07-03T01:59:13.560Z,1012.22
2018-07-03T02:00:13.581Z,1012.16
2018-07-03T02:01:13.601Z,1012.20
2018-07-03T02:02:13.627Z,1012.16
2018-07-03T02:03:13.650Z,1012.19
2018-07-03T02:04:13.669Z,1012.15
2018-07-03T02:05:13.733Z,1012.15
2018-07-03T02:06:13.709Z,1012.15
2018-07-03T02:07:13.735Z,1012.12
2018-07-03T02:08:13.753Z,1012.14
2018-07-03T02:09:13.774Z,1012.10
2018-07-03T02:10:13.795Z,1012.04
2018-07-03T02:11:13.820Z,1012.09
2018-07-03T02:12:13.842Z,1012.07
2018-07-03T02:13:13.863Z,1012.11
2018-07-03T02:14:13.884Z,1012.06
2018-07-03T02:15:13.906Z,1012.08
2018-07-03T02:16:13.927Z,1012.07
2018-07-03T02:17:13.944Z,1012.09
2018-07-03T02:18:13.972Z,1012.06
2018-07-03T02:19:13.988Z,1012.07
2018-07-03T02:20:14.009Z,1012.04
2018-07-03T02:21:14.033Z,1012.02
2018-07-03T02:22:14.054Z,1011.99
2018-07-03T02:23:14.073Z,1012.02
2018-07-03T02:24:14.098Z,1012.02
2018-07-03T02:25:14.115Z,1012.05
2018-07-03T02:26:14.140Z,1012.03
2018-07-03T02:27:14.161Z,1012.02
2018-07-03T02:28:14.181Z,1012.00
2018-07-03T02:29:14.199Z,1012.02
2018-07-03T02:30:14.223Z,1012.03
2018-07-03T02:31:14.246Z,1012.03
2018-07-03T02:32:14.267Z,1012.02
2018-07-03T02:33:14.285Z,1011.99
2018-07-03T02:34:14.308Z,1012.01
2018-07-03T02:35:14.330Z,1011.99
2018-07-03T02:36:14.353Z,1012.01
2018-07-03T02:37:14.371Z,1012.00
2018-07-03T02:38:14.390Z,1011.97
2018-07-03T02:39:14.423Z,1011.99
2018-07-03T02:40:14.433Z,1011.99
2018-07-03T02:41:14.457Z,1012.01
2018-07-03T02:42:14.476Z,1011.99
2018-07-03T02:43:14.498Z,1011.96
2018-07-03T02:44:14.521Z,1011.91
2018-07-03T02:45:14.538Z,1011.95
2018-07-03T02:46:14.563Z,1012.01
2018-07-03T02:47:14.584Z,1011.96
2018-07-03T02:48:14.603Z,1011.91
2018-07-03T02:49:14.625Z,1011.96
2018-07-03T02:50:14.646Z,1011.99
2018-07-03T02:51:14.677Z,1011.95
2018-07-03T02:52:14.689Z,1011.91
2018-07-03T02:53:14.709Z,1011.91
2018-07-03T02:54:14.730Z,1011.98
2018-07-03T02:55:14.752Z,1012.00
2018-07-03T02:56:14.776Z,1011.97
2018-07-03T02:57:14.789Z,1011.95
2018-07-03T02:58:14.815Z,1011.94
2018-07-03T02:59:14.843Z,1011.94
2018-07-03T03:00:14.854Z,1011.97
2018-07-03T03:01:14.873Z,1011.92
2018-07-03T03:02:14.895Z,1011.90
2018-07-03T03:03:14.920Z,1011.88
2018-07-03T03:04:14.939Z,1011.88
2018-07-03T03:05:14.960Z,1011.95
2018-07-03T03:06:14.980Z,1011.87
2018-07-03T03:07:15.000Z,1011.89
2018-07-03T03:08:15.081Z,1011.86
2018-07-03T03:09:15.043Z,1011.88
2018-07-03T03:10:15.061Z,1011.88
2018-07-03T03:11:15.085Z,1011.89
2018-07-03T03:12:15.106Z,1011.87
2018-07-03T03:13:15.127Z,1011.87
2018-07-03T03:14:15.145Z,1011.86
2018-07-03T03:15:15.168Z,1011.85
2018-07-03T03:16:15.188Z,1011.88
2018-07-03T03:17:15.211Z,1011.87
2018-07-03T03:18:15.228Z,1011.88
2018-07-03T03:19:15.248Z,1011.86
2018-07-03T03:20:15.275Z,1011.89
2018-07-03T03:21:15.289Z,1011.87
2018-07-03T03:22:15.319Z,1011.84
2018-07-03T03:23:15.333Z,1011.83
2018-07-03T03:24:15.353Z,1011.82
2018-07-03T03:25:15.375Z,1011.85
2018-07-03T03:26:15.393Z,1011.83
2018-07-03T03:27:15.415Z,1011.85
2018-07-03T03:28:15.444Z,1011.84
2018-07-03T03:29:15.459Z,1011.88
2018-07-03T03:30:15.482Z,1011.87
2018-07-03T03:31:15.498Z,1011.89
2018-07-03T03:32:15.521Z,1011.90
2018-07-03T03:33:15.541Z,1011.84
2018-07-03T03:34:15.562Z,1011.86
2018-07-03T03:35:15.582Z,1011.87
2018-07-03T03:36:15.603Z,1011.87
2018-07-03T03:37:15.625Z,1011.88
2018-07-03T03:38:15.647Z,1011.85
2018-07-03T03:39:15.666Z,1011.85
2018-07-03T03:40:15.686Z,1011.78
2018-07-03T03:41:15.705Z,1011.81
2018-07-03T03:42:15.731Z,1011.82
2018-07-03T03:43:15.748Z,1011.84
2018-07-03T03:44:15.769Z,1011.82
2018-07-03T03:45:15.939Z,1011.83
2018-07-03T03:46:15.812Z,1011.81
2018-07-03T03:47:15.834Z,1011.83
2018-07-03T03:48:16.004Z,1011.83
2018-07-03T03:49:15.872Z,1011.85
2018-07-03T03:50:15.893Z,1011.86
2018-07-03T03:51:15.964Z,1011.85
2018-07-03T03:52:15.937Z,1011.87
2018-07-03T03:53:16.057Z,1011.86
2018-07-03T03:54:16.028Z,1011.84
2018-07-03T03:55:15.997Z,1011.86
2018-07-03T03:56:16.021Z,1011.82
2018-07-03T03:57:16.039Z,1011.80
2018-07-03T03:58:16.059Z,1011.77
2018-07-03T03:59:16.080Z,1011.78
2018-07-03T04:00:16.102Z,1011.81
2018-07-03T04:01:16.125Z,1011.76
2018-07-03T04:02:16.171Z,1011.78
2018-07-03T04:03:16.166Z,1011.81
2018-07-03T04:04:16.184Z,1011.81
2018-07-03T04:05:16.206Z,1011.81
2018-07-03T04:06:16.229Z,1011.78
2018-07-03T04:07:16.456Z,1011.80
2018-07-03T04:08:16.269Z,1011.81
2018-07-03T04:09:16.290Z,1011.80
2018-07-03T04:10:16.310Z,1011.76
2018-07-03T04:11:16.332Z,1011.76
2018-07-03T04:12:16.358Z,1011.82
2018-07-03T04:13:16.372Z,1011.78
2018-07-03T04:14:16.391Z,1011.82
2018-07-03T04:15:16.413Z,1011.84
2018-07-03T04:16:16.433Z,1011.82
2018-07-03T04:17:16.455Z,1011.80
2018-07-03T04:18:16.475Z,1011.86
2018-07-03T04:19:16.501Z,1011.85
2018-07-03T04:20:16.515Z,1011.83
2018-07-03T04:21:16.539Z,1011.84
2018-07-03T04:22:16.560Z,1011.85
2018-07-03T04:23:16.578Z,1011.81
2018-07-03T04:24:16.602Z,1011.84
2018-07-03T04:25:16.620Z,1011.83
2018-07-03T04:26:16.644Z,1011.82
2018-07-03T04:27:16.663Z,1011.85
2018-07-03T04:28:16.684Z,1011.86
2018-07-03T04:29:16.706Z,1011.85
2018-07-03T04:30:16.725Z,1011.85
2018-07-03T04:31:16.745Z,1011.81
2018-07-03T04:32:16.866Z,1011.87
2018-07-03T04:33:16.790Z,1011.83
2018-07-03T04:34:16.809Z,1011.86
2018-07-03T04:35:16.828Z,1011.88
2018-07-03T04:36:16.852Z,1011.85
2018-07-03T04:37:16.873Z,1011.89
2018-07-03T04:38:16.893Z,1011.89
2018-07-03T04:39:16.913Z,1011.91
2018-07-03T04:40:16.936Z,1011.95
2018-07-03T04:41:16.955Z,1011.91
2018-07-03T04:42:16.978Z,1011.91
2018-07-03T04:43:16.996Z,1011.90
2018-07-03T04:44:17.020Z,1011.93
2018-07-03T04:45:17.039Z,1011.90
2018-07-03T04:46:17.061Z,1011.92
2018-07-03T04:47:17.080Z,1011.90
2018-07-03T04:48:17.104Z,1011.92
2018-07-03T04:49:17.121Z,1011.93
2018-07-03T04:50:17.145Z,1011.95
2018-07-03T04:51:17.165Z,1011.98
2018-07-03T04:52:17.185Z,1012.03
2018-07-03T04:53:17.210Z,1011.98
2018-07-03T04:54:17.228Z,1011.97
2018-07-03T04:55:17.249Z,1011.98
2018-07-03T04:56:17.270Z,1011.99
2018-07-03T04:57:17.291Z,1011.98
2018-07-03T04:58:17.315Z,1011.97
2018-07-03T04:59:17.336Z,1011.98
2018-07-03T05:00:17.358Z,1012.00
2018-07-03T05:01:17.377Z,1011.97
2018-07-03T05:02:17.402Z,1011.99
2018-07-03T05:03:17.422Z,1012.03
2018-07-03T05:04:17.439Z,1012.03
2018-07-03T05:05:17.464Z,1012.04
2018-07-03T05:06:17.485Z,1012.05
2018-07-03T05:07:17.506Z,1012.02
2018-07-03T05:08:17.528Z,1012.08
2018-07-03T05:09:17.545Z,1012.03
2018-07-03T05:10:17.568Z,1012.07
2018-07-03T05:11:17.592Z,1012.08
2018-07-03T05:12:17.615Z,1012.10
2018-07-03T05:13:17.631Z,1012.13
2018-07-03T05:14:17.654Z,1012.08
2018-07-03T05:15:17.675Z,1012.10
2018-07-03T05:16:17.699Z,1012.10
2018-07-03T05:17:17.720Z,1012.09
2018-07-03T05:18:17.737Z,1012.13
2018-07-03T05:19:17.763Z,1012.16
2018-07-03T05:20:17.784Z,1012.18
2018-07-03T05:21:17.807Z,1012.22
2018-07-03T05:22:17.823Z,1012.20
2018-07-03T05:23:17.846Z,1012.20
2018-07-03T05:24:17.869Z,1012.23
2018-07-03T05:25:17.889Z,1012.26
2018-07-03T05:26:17.913Z,1012.29
2018-07-03T05:27:17.934Z,1012.27
2018-07-03T05:28:17.953Z,1012.28
2018-07-03T05:29:17.975Z,1012.28
2018-07-03T05:30:17.996Z,1012.31
2018-07-03T05:31:18.061Z,1012.32
2018-07-03T05:32:18.043Z,1012.34
2018-07-03T05:33:18.061Z,1012.34
2018-07-03T05:34:18.087Z,1012.40
2018-07-03T05:35:18.108Z,1012.36
2018-07-03T05:36:18.129Z,1012.35
2018-07-03T05:37:18.239Z,1012.37
2018-07-03T05:38:18.170Z,1012.40
2018-07-03T05:39:18.194Z,1012.34
2018-07-03T05:40:18.214Z,1012.38
2018-07-03T05:41:18.235Z,1012.38
2018-07-03T05:42:18.261Z,1012.35
2018-07-03T05:43:18.283Z,1012.38
2018-07-03T05:44:18.302Z,1012.39
2018-07-03T05:45:18.323Z,1012.41
2018-07-03T05:46:18.348Z,1012.40
2018-07-03T05:47:18.368Z,1012.44
2018-07-03T05:48:18.393Z,1012.45
2018-07-03T05:49:18.416Z,1012.43
2018-07-03T05:50:18.487Z,1012.45
2018-07-03T05:51:18.455Z,1012.45
2018-07-03T05:52:18.935Z,1012.48
2018-07-03T05:53:18.503Z,1012.44
2018-07-03T05:54:18.524Z,1012.48
2018-07-03T05:55:18.693Z,1012.49
2018-07-03T05:56:18.725Z,1012.44
2018-07-03T05:57:18.593Z,1012.46
2018-07-03T05:58:18.614Z,1012.50
2018-07-03T05:59:18.638Z,1012.52
2018-07-03T06:00:18.659Z,1012.44
2018-07-03T06:01:18.684Z,1012.44
2018-07-03T06:02:18.708Z,1012.45
2018-07-03T06:03:18.732Z,1012.45
2018-07-03T06:04:18.752Z,1012.46
2018-07-03T06:05:18.775Z,1012.51
2018-07-03T06:06:18.801Z,1012.56
2018-07-03T06:07:18.823Z,1012.47
2018-07-03T06:08:18.855Z,1012.52
2018-07-03T06:09:18.891Z,1012.54
2018-07-03T06:10:18.897Z,1012.55
2018-07-03T06:11:18.918Z,1012.58
2018-07-03T06:12:19.154Z,1012.56
2018-07-03T06:13:18.968Z,1012.54
2018-07-03T06:14:18.990Z,1012.56
2018-07-03T06:15:19.018Z,1012.55
2018-07-03T06:16:19.043Z,1012.55
2018-07-03T06:17:19.069Z,1012.57
2018-07-03T06:18:19.090Z,1012.61
2018-07-03T06:19:19.117Z,1012.61
2018-07-03T06:20:19.143Z,1012.68
2018-07-03T06:21:19.167Z,1012.65
2018-07-03T06:22:19.194Z,1012.66
2018-07-03T06:23:19.251Z,1012.63
2018-07-03T06:24:19.240Z,1012.64
2018-07-03T06:25:19.266Z,1012.61
2018-07-03T06:26:19.293Z,1012.63
2018-07-03T06:27:19.317Z,1012.63
2018-07-03T06:28:19.344Z,1012.62
2018-07-03T06:29:19.368Z,1012.62
2018-07-03T06:30:19.396Z,1012.65
2018-07-03T06:31:19.422Z,1012.70
2018-07-03T06:32:19.447Z,1012.67
2018-07-03T06:33:19.475Z,1012.67
2018-07-03T06:34:19.501Z,1012.71
2018-07-03T06:35:19.528Z,1012.70
2018-07-03T06:36:19.551Z,1012.68
2018-07-03T06:37:19.629Z,1012.66
2018-07-03T06:38:19.604Z,1012.72
2018-07-03T06:39:19.632Z,1012.66
2018-07-03T06:40:19.658Z,1012.68
2018-07-03T06:41:19.686Z,1012.69
2018-07-03T06:42:19.713Z,1012.70
2018-07-03T06:43:19.737Z,1012.63
2018-07-03T06:44:19.765Z,1012.59
2018-07-03T06:45:19.793Z,1012.61
2018-07-03T06:46:19.819Z,1012.61
2018-07-03T06:47:19.866Z,1012.64
2018-07-03T06:48:19.873Z,1012.64
2018-07-03T06:49:19.904Z,1012.66
2018-07-03T06:50:19.927Z,1012.65
2018-07-03T06:51:19.955Z,1012.65
2018-07-03T06:52:19.979Z,1012.67
2018-07-03T06:53:20.007Z,1012.67
2018-07-03T06:54:20.034Z,1012.67
2018-07-03T06:55:20.060Z,1012.66
2018-07-03T06:56:20.093Z,1012.70
2018-07-03T06:57:20.113Z,1012.65
2018-07-03T06:58:20.141Z,1012.64
2018-07-03T06:59:20.172Z,1012.68
2018-07-03T07:00:20.199Z,1012.68
2018-07-03T07:01:20.222Z,1012.64
2018-07-03T07:02:20.293Z,1012.63
2018-07-03T07:03:20.278Z,1012.66
2018-07-03T07:04:20.559Z,1012.59
2018-07-03T07:05:20.337Z,1012.65
2018-07-03T07:06:20.368Z,1012.59
2018-07-03T07:07:20.389Z,1012.61
2018-07-03T07:08:20.419Z,1012.64
2018-07-03T07:09:20.602Z,1012.60
2018-07-03T07:10:20.472Z,1012.62
2018-07-03T07:11:20.499Z,1012.59
2018-07-03T07:12:20.527Z,1012.60
2018-07-03T07:13:20.562Z,1012.60
2018-07-03T07:14:20.585Z,1012.59
2018-07-03T07:15:20.815Z,1012.61
2018-07-03T07:16:20.641Z,1012.60
2018-07-03T07:17:20.667Z,1012.58
2018-07-03T07:18:20.697Z,1012.61
2018-07-03T07:19:20.723Z,1012.59
2018-07-03T07:20:20.754Z,1012.58
2018-07-03T07:21:20.782Z,1012.61
2018-07-03T07:22:20.808Z,1012.61
2018-07-03T07:23:20.846Z,1012.63
2018-07-03T07:24:20.869Z,1012.61
2018-07-03T07:25:20.894Z,1012.60
2018-07-03T07:26:20.922Z,1012.58
2018-07-03T07:27:20.954Z,1012.59
2018-07-03T07:28:20.980Z,1012.59
2018-07-03T07:29:21.052Z,1012.58
2018-07-03T07:30:21.041Z,1012.62
2018-07-03T07:31:21.069Z,1012.61
2018-07-03T07:32:21.095Z,1012.66
2018-07-03T07:33:21.123Z,1012.63
2018-07-03T07:34:21.154Z,1012.61
2018-07-03T07:35:21.184Z,1012.59
2018-07-03T07:36:21.214Z,1012.60
2018-07-03T07:37:21.237Z,1012.61
2018-07-03T07:38:21.269Z,1012.60
2018-07-03T07:39:21.297Z,1012.60
2018-07-03T07:40:21.329Z,1012.57
2018-07-03T07:41:21.354Z,1012.59
2018-07-03T07:42:21.381Z,1012.59
2018-07-03T07:43:21.409Z,1012.59
2018-07-03T07:44:21.438Z,1012.55
2018-07-03T07:45:21.466Z,1012.55
2018-07-03T07:46:21.493Z,1012.57
2018-07-03T07:47:21.523Z,1012.55
2018-07-03T07:48:21.558Z,1012.55
2018-07-03T07:49:21.580Z,1012.55
2018-07-03T07:50:21.607Z,1012.51
2018-07-03T07:51:21.635Z,1012.52
2018-07-03T07:52:21.664Z,1012.45
2018-07-03T07:53:21.690Z,1012.48
2018-07-03T07:54:21.716Z,1012.50
2018-07-03T07:55:21.746Z,1012.53
2018-07-03T07:56:21.816Z,1012.55
2018-07-03T07:57:21.801Z,1012.54
2018-07-03T07:58:21.827Z,1012.57
2018-07-03T07:59:21.853Z,1012.52
2018-07-03T08:00:21.945Z,1012.49
2018-07-03T08:01:21.909Z,1012.52
2018-07-03T08:02:21.956Z,1012.54
2018-07-03T08:03:21.966Z,1012.51
2018-07-03T08:04:21.991Z,1012.49
2018-07-03T08:05:22.021Z,1012.48
2018-07-03T08:06:22.047Z,1012.46
2018-07-03T08:07:22.073Z,1012.39
2018-07-03T08:08:22.107Z,1012.47
2018-07-03T08:09:22.127Z,1012.45
2018-07-03T08:10:22.157Z,1012.48
2018-07-03T08:11:22.182Z,1012.47
2018-07-03T08:12:22.211Z,1012.47
2018-07-03T08:13:22.323Z,1012.45
2018-07-03T08:14:22.266Z,1012.44
2018-07-03T08:15:22.291Z,1012.45
2018-07-03T08:16:22.319Z,1012.41
2018-07-03T08:17:22.344Z,1012.42
2018-07-03T08:18:22.375Z,1012.41
2018-07-03T08:19:22.400Z,1012.45
2018-07-03T08:20:22.429Z,1012.43
2018-07-03T08:21:22.456Z,1012.45
2018-07-03T08:22:22.480Z,1012.44
2018-07-03T08:23:22.510Z,1012.45
2018-07-03T08:24:22.538Z,1012.46
2018-07-03T08:25:22.565Z,1012.47
2018-07-03T08:26:22.589Z,1012.46
2018-07-03T08:27:22.621Z,1012.48
2018-07-03T08:28:22.647Z,1012.48
2018-07-03T08:29:22.670Z,1012.50
2018-07-03T08:30:22.698Z,1012.46
2018-07-03T08:31:22.725Z,1012.44
2018-07-03T08:32:22.768Z,1012.41
2018-07-03T08:33:22.781Z,1012.41
2018-07-03T08:34:22.809Z,1012.43
2018-07-03T08:35:22.835Z,1012.40
2018-07-03T08:36:22.865Z,1012.40
2018-07-03T08:37:22.890Z,1012.37
2018-07-03T08:38:22.916Z,1012.37
2018-07-03T08:39:22.946Z,1012.42
2018-07-03T08:40:22.973Z,1012.43
2018-07-03T08:41:23.000Z,1012.41
2018-07-03T08:42:23.027Z,1012.45
2018-07-03T08:43:23.052Z,1012.42
2018-07-03T08:44:23.083Z,1012.40
2018-07-03T08:45:23.107Z,1012.39
2018-07-03T08:46:23.138Z,1012.36
2018-07-03T08:47:23.161Z,1012.37
2018-07-03T08:48:23.210Z,1012.41
2018-07-03T08:49:23.218Z,1012.38
2018-07-03T08:50:23.246Z,1012.37
2018-07-03T08:51:23.273Z,1012.40
2018-07-03T08:52:23.302Z,1012.37
2018-07-03T08:53:23.329Z,1012.36
2018-07-03T08:54:23.355Z,1012.38
2018-07-03T08:55:23.381Z,1012.37
2018-07-03T08:56:23.411Z,1012.34
2018-07-03T08:57:23.439Z,1012.35
2018-07-03T08:58:23.465Z,1012.34
2018-07-03T08:59:23.491Z,1012.33
2018-07-03T09:00:23.522Z,1012.31
2018-07-03T09:01:23.545Z,1012.31
2018-07-03T09:02:23.575Z,1012.33
2018-07-03T09:03:23.613Z,1012.32
2018-07-03T09:04:23.629Z,1012.33
2018-07-03T09:05:23.657Z,1012.32
2018-07-03T09:06:23.685Z,1012.36
2018-07-03T09:07:23.714Z,1012.30
2018-07-03T09:08:23.744Z,1012.35
2018-07-03T09:09:23.768Z,1012.38
2018-07-03T09:10:23.796Z,1012.31
2018-07-03T09:11:23.836Z,1012.33
2018-07-03T09:12:23.855Z,1012.33
2018-07-03T09:13:24.029Z,1012.31
2018-07-03T09:14:23.906Z,1012.30
2018-07-03T09:15:23.934Z,1012.30
2018-07-03T09:16:23.963Z,1012.31
2018-07-03T09:17:23.989Z,1012.25
2018-07-03T09:18:24.019Z,1012.28
2018-07-03T09:19:24.048Z,1012.25
2018-07-03T09:20:24.073Z,1012.28
2018-07-03T09:21:24.099Z,1012.22
2018-07-03T09:22:24.127Z,1012.26
2018-07-03T09:23:24.155Z,1012.22
2018-07-03T09:24:24.186Z,1012.22
2018-07-03T09:25:24.211Z,1012.23
2018-07-03T09:26:24.245Z,1012.22
2018-07-03T09:27:24.266Z,1012.20
2018-07-03T09:28:24.297Z,1012.19
2018-07-03T09:29:24.322Z,1012.17
2018-07-03T09:30:24.360Z,1012.16
2018-07-03T09:31:24.380Z,1012.19
2018-07-03T09:32:24.405Z,1012.20
2018-07-03T09:33:24.438Z,1012.17
2018-07-03T09:34:24.463Z,1012.23
2018-07-03T09:35:24.491Z,1012.21
2018-07-03T09:36:24.594Z,1012.17
2018-07-03T09:37:24.546Z,1012.14
2018-07-03T09:38:24.576Z,1012.17
2018-07-03T09:39:24.602Z,1012.11
2018-07-03T09:40:24.631Z,1012.14
2018-07-03T09:41:24.655Z,1012.12
2018-07-03T09:42:24.732Z,1012.08
2018-07-03T09:43:24.711Z,1012.10
2018-07-03T09:44:24.741Z,1012.10
2018-07-03T09:45:24.771Z,1012.08
2018-07-03T09:46:24.795Z,1012.10
2018-07-03T09:47:24.826Z,1012.11
2018-07-03T09:48:24.851Z,1012.11
2018-07-03T09:49:24.878Z,1012.10
2018-07-03T09:50:25.011Z,1012.08
2018-07-03T09:51:24.937Z,1012.06
2018-07-03T09:52:24.970Z,1012.06
2018-07-03T09:53:24.990Z,1012.03
2018-07-03T09:54:25.022Z,1012.06
2018-07-03T09:55:25.400Z,1012.03
2018-07-03T09:56:25.077Z,1012.01
2018-07-03T09:57:25.106Z,1012.00
2018-07-03T09:58:25.137Z,1012.00
2018-07-03T09:59:25.170Z,1012.02
2018-07-03T10:00:25.187Z,1012.00
2018-07-03T10:01:25.216Z,1012.03
2018-07-03T10:02:25.244Z,1011.98
2018-07-03T10:03:25.275Z,1011.97
2018-07-03T10:04:25.300Z,1011.99
2018-07-03T10:05:25.372Z,1012.01
2018-07-03T10:06:25.359Z,1011.97
2018-07-03T10:07:25.387Z,1011.98
2018-07-03T10:08:25.412Z,1011.94
2018-07-03T10:09:25.441Z,1011.91
2018-07-03T10:10:25.473Z,1011.94
2018-07-03T10:11:25.496Z,1011.91
2018-07-03T10:12:25.524Z,1011.90
2018-07-03T10:13:25.554Z,1011.92
2018-07-03T10:14:25.580Z,1011.91
2018-07-03T10:15:25.611Z,1011.93
2018-07-03T10:16:25.636Z,1011.92
2018-07-03T10:17:25.666Z,1011.92
2018-07-03T10:18:25.693Z,1011.92
2018-07-03T10:19:25.720Z,1011.90
2018-07-03T10:20:25.752Z,1011.94
2018-07-03T10:21:25.779Z,1011.89
2018-07-03T10:22:25.805Z,1011.90
2018-07-03T10:23:25.833Z,1011.92
2018-07-03T10:24:25.868Z,1011.90
2018-07-03T10:25:25.892Z,1011.88
2018-07-03T10:26:25.919Z,1011.86
2018-07-03T10:27:25.950Z,1011.89
2018-07-03T10:28:25.976Z,1011.90
2018-07-03T10:29:26.004Z,1011.88
2018-07-03T10:30:26.033Z,1011.90
2018-07-03T10:31:26.112Z,1011.95
2018-07-03T10:32:26.089Z,1011.92
2018-07-03T10:33:26.114Z,1011.92
2018-07-03T10:34:26.149Z,1011.93
2018-07-03T10:35:26.171Z,1011.93
2018-07-03T10:36:26.203Z,1011.91
2018-07-03T10:37:26.228Z,1011.90
2018-07-03T10:38:26.258Z,1011.89
2018-07-03T10:39:26.285Z,1011.88
2018-07-03T10:40:26.313Z,1011.85
2018-07-03T10:41:26.344Z,1011.85
2018-07-03T10:42:26.372Z,1011.83
2018-07-03T10:43:26.397Z,1011.85
2018-07-03T10:44:26.428Z,1011.86
2018-07-03T10:45:26.455Z,1011.82
2018-07-03T10:46:26.483Z,1011.86
2018-07-03T10:47:26.510Z,1011.83
2018-07-03T10:48:26.541Z,1011.81
2018-07-03T10:49:26.569Z,1011.81
2018-07-03T10:50:26.596Z,1011.83
2018-07-03T10:51:26.625Z,1011.80
2018-07-03T10:52:26.654Z,1011.79
2018-07-03T10:53:26.678Z,1011.79
2018-07-03T10:54:26.708Z,1011.80
2018-07-03T10:55:26.739Z,1011.77
2018-07-03T10:56:26.763Z,1011.73
2018-07-03T10:57:26.860Z,1011.72
2018-07-03T10:58:26.818Z,1011.74
2018-07-03T10:59:26.908Z,1011.77
2018-07-03T11:00:26.878Z,1011.71
2018-07-03T11:01:26.914Z,1011.74
2018-07-03T11:02:26.933Z,1011.76
2018-07-03T11:03:26.961Z,1011.75
2018-07-03T11:04:26.990Z,1011.72
2018-07-03T11:05:27.018Z,1011.74
2018-07-03T11:06:27.043Z,1011.71
2018-07-03T11:07:27.072Z,1011.71
2018-07-03T11:08:27.101Z,1011.70
2018-07-03T11:09:27.128Z,1011.73
2018-07-03T11:10:27.154Z,1011.69
2018-07-03T11:11:27.185Z,1011.69
2018-07-03T11:12:27.212Z,1011.68
2018-07-03T11:13:27.241Z,1011.70
2018-07-03T11:14:27.266Z,1011.71
2018-07-03T11:15:27.294Z,1011.71
2018-07-03T11:16:27.333Z,1011.68
2018-07-03T11:17:27.350Z,1011.72
2018-07-03T11:18:27.377Z,1011.67
2018-07-03T11:19:27.409Z,1011.67
2018-07-03T11:20:27.435Z,1011.62
2018-07-03T11:21:27.461Z,1011.64
2018-07-03T11:22:27.495Z,1011.62
2018-07-03T11:23:27.521Z,1011.62
2018-07-03T11:24:27.547Z,1011.62
2018-07-03T11:25:27.573Z,1011.61
2018-07-03T11:26:27.601Z,1011.60
2018-07-03T11:27:27.763Z,1011.64
2018-07-03T11:28:27.661Z,1011.60
2018-07-03T11:29:27.685Z,1011.59
2018-07-03T11:30:27.718Z,1011.60
2018-07-03T11:31:27.741Z,1011.60
2018-07-03T11:32:27.772Z,1011.54
2018-07-03T11:33:27.800Z,1011.58
2018-07-03T11:34:27.830Z,1011.59
2018-07-03T11:35:27.855Z,1011.57
2018-07-03T11:36:27.884Z,1011.58
2018-07-03T11:37:27.913Z,1011.58
2018-07-03T11:38:27.986Z,1011.62
2018-07-03T11:39:27.969Z,1011.61
2018-07-03T11:40:28.123Z,1011.60
2018-07-03T11:41:28.201Z,1011.56
2018-07-03T11:42:28.053Z,1011.56
2018-07-03T11:43:28.084Z,1011.53
2018-07-03T11:44:28.109Z,1011.52
2018-07-03T11:45:28.136Z,1011.49
2018-07-03T11:46:28.171Z,1011.49
2018-07-03T11:47:28.191Z,1011.47
2018-07-03T11:48:28.223Z,1011.48
2018-07-03T11:49:28.248Z,1011.49
2018-07-03T11:50:28.278Z,1011.45
2018-07-03T11:51:28.317Z,1011.47
2018-07-03T11:52:28.334Z,1011.46
2018-07-03T11:53:28.380Z,1011.44
2018-07-03T11:54:28.432Z,1011.42
2018-07-03T11:55:28.462Z,1011.41
2018-07-03T11:56:28.450Z,1011.43
2018-07-03T11:57:28.474Z,1011.40
2018-07-03T11:58:28.503Z,1011.42
2018-07-03T11:59:28.531Z,1011.47
2018-07-03T12:00:28.563Z,1011.44
2018-07-03T12:01:28.612Z,1011.44
2018-07-03T12:02:28.619Z,1011.46
2018-07-03T12:03:28.649Z,1011.45
2018-07-03T12:04:28.675Z,1011.43
2018-07-03T12:05:28.702Z,1011.45